Time;durP1;ratioP1;P1;durP2;ratioP2;P2;SDS_P1;SDS_P2;PMS_P1;PMS_P2;Temp;Humidity;BMP_temperature;BMP_pressure;BME280_temperature;BME280_humidity;BME280_pressure;Samples;Min_cycle;Max_cycle;Signal;HPM_P1;HPM_P2
2022/05/08 00:00:23;;;;;;;0.60;0.20;;;16.70;99.90;;;;;;5036289;28;20538;-75
2022/05/08 00:02:54;;;;;;;0.60;0.20;;;16.70;1.00;;;;;;5035117;28;20487;-76
2022/05/08 00:05:23;;;;;;;0.60;0.20;;;16.60;1.00;;;;;;5033765;28;20616;-74
2022/05/08 00:07:51;;;;;;;1.27;0.93;;;16.70;1.00;;;;;;5033589;28;20476;-76
2022/05/08 00:10:19;;;;;;;0.97;0.87;;;16.60;1.00;;;;;;5035763;28;20464;-75
2022/05/08 00:12:48;;;;;;;0.60;0.37;;;16.60;1.00;;;;;;5041415;28;20456;-75
2022/05/08 00:15:16;;;;;;;2.20;2.00;;;16.50;1.00;;;;;;5019305;28;20478;-76
2022/05/08 00:17:44;;;;;;;0.70;0.57;;;16.60;1.00;;;;;;5020362;28;20938;-75
2022/05/08 00:20:13;;;;;;;1.50;1.20;;;16.50;1.00;;;;;;5016763;28;20508;-75
2022/05/08 00:22:44;;;;;;;0.60;0.20;;;16.50;1.00;;;;;;5014587;28;20449;-76
2022/05/08 00:25:12;;;;;;;13.40;3.17;;;16.40;1.00;;;;;;5015037;28;20915;-74
2022/05/08 00:27:40;;;;;;;0.60;0.13;;;16.30;1.00;;;;;;5030578;28;20525;-74
2022/05/08 00:30:11;;;;;;;2.77;2.50;;;16.30;1.00;;;;;;5030266;28;20488;-74
2022/05/08 00:32:39;;;;;;;0.70;0.43;;;;;;;;;;5032489;28;20455;-75
2022/05/08 00:35:09;;;;;;;0.60;0.20;;;16.30;1.00;;;;;;5032008;28;20497;-75
2022/05/08 00:37:38;;;;;;;0.60;0.33;;;16.30;1.00;;;;;;5030225;28;20481;-73
2022/05/08 00:40:07;;;;;;;1.63;0.60;;;16.20;1.00;;;;;;5028893;28;20442;-74
2022/05/08 00:42:35;;;;;;;0.60;0.17;;;16.20;1.00;;;;;;5010564;28;20519;-74
2022/05/08 00:45:11;;;;;;;0.60;0.20;;;16.10;1.00;;;;;;5009920;28;20458;-74
2022/05/08 00:47:39;;;;;;;1.73;0.83;;;16.20;1.00;;;;;;5011838;28;20465;-74
2022/05/08 00:50:08;;;;;;;1.10;1.00;;;16.20;1.00;;;;;;5011452;28;20444;-73
2022/05/08 00:52:36;;;;;;;0.60;0.20;;;16.10;1.00;;;;;;5011780;28;20475;-73
2022/05/08 00:55:06;;;;;;;0.60;0.20;;;16.40;1.00;;;;;;5015061;28;20506;-73
2022/05/08 00:57:35;;;;;;;0.60;0.20;;;16.10;1.00;;;;;;5014819;28;20840;-73
2022/05/08 01:00:05;;;;;;;0.60;0.13;;;16.10;1.00;;;;;;5015478;28;20479;-73
2022/05/08 01:02:35;;;;;;;0.90;0.60;;;16.20;1.00;;;;;;5029961;28;20536;-74
2022/05/08 01:05:03;;;;;;;2.20;1.50;;;16.10;1.00;;;;;;5030620;28;20459;-74
2022/05/08 01:07:32;;;;;;;2.03;0.77;;;16.10;1.00;;;;;;5016959;28;20590;-74
2022/05/08 01:10:02;;;;;;;0.70;0.60;;;16.10;1.00;;;;;;5016419;28;20436;-76
2022/05/08 01:12:33;;;;;;;0.60;0.10;;;16.10;1.00;;;;;;5016647;28;20448;-75
2022/05/08 01:15:11;;;;;;;0.90;0.40;;;;;;;;;;5016064;28;20482;-74
2022/05/08 01:17:40;;;;;;;1.60;0.57;;;16.00;1.00;;;;;;5015589;28;20456;-75
2022/05/08 01:20:09;;;;;;;1.60;1.50;;;16.00;1.00;;;;;;5028386;28;20998;-73
2022/05/08 01:22:39;;;;;;;3.53;0.90;;;16.00;1.00;;;;;;5034987;28;20940;-74
2022/05/08 01:25:07;;;;;;;0.60;0.20;;;15.90;1.00;;;;;;5034907;28;20447;-75
2022/05/08 01:27:35;;;;;;;1.00;0.80;;;15.90;1.00;;;;;;5017548;28;20473;-76
2022/05/08 01:30:05;;;;;;;0.60;0.20;;;15.90;1.00;;;;;;5014918;28;20444;-74
2022/05/08 01:32:33;;;;;;;3.73;1.03;;;15.90;1.00;;;;;;5015618;28;20906;-75
2022/05/08 01:35:02;;;;;;;0.60;0.33;;;15.80;1.00;;;;;;5032675;28;20506;-73
2022/05/08 01:37:30;;;;;;;0.77;0.60;;;15.80;1.00;;;;;;5039257;28;21176;-75
2022/05/08 01:39:59;;;;;;;2.30;2.20;;;15.70;1.00;;;;;;5041102;28;20890;-74
2022/05/08 01:42:28;;;;;;;0.60;0.40;;;15.70;1.00;;;;;;5034825;28;20479;-73
2022/05/08 01:44:56;;;;;;;0.60;0.30;;;15.70;1.00;;;;;;5034410;28;20553;-75
2022/05/08 01:50:10;;;;;;;0.70;0.40;;;15.60;1.00;;;;;;5015073;28;20476;-74
2022/05/08 01:52:38;;;;;;;0.70;0.43;;;15.60;1.00;;;;;;5014672;28;20836;-76
2022/05/08 01:55:08;;;;;;;0.77;0.77;;;15.60;1.00;;;;;;5013796;28;20563;-75
2022/05/08 01:57:36;;;;;;;1.50;1.40;;;15.50;1.00;;;;;;5013644;28;20450;-74
2022/05/08 02:00:05;;;;;;;1.13;0.97;;;15.50;1.00;;;;;;5014143;28;20916;-73
2022/05/08 02:02:34;;;;;;;3.20;3.00;;;15.50;1.00;;;;;;5014562;28;20456;-76
2022/05/08 02:05:03;;;;;;;0.60;0.30;;;15.40;1.00;;;;;;5019832;28;20509;-75
2022/05/08 02:07:31;;;;;;;0.90;0.60;;;15.40;1.00;;;;;;5032254;28;20467;-74
2022/05/08 02:09:59;;;;;;;0.60;0.20;;;15.50;1.00;;;;;;5032668;28;20452;-76
2022/05/08 02:12:29;;;;;;;0.70;0.60;;;15.40;1.00;;;;;;5032892;28;20456;-75
2022/05/08 02:14:56;;;;;;;1.40;1.30;;;15.40;1.00;;;;;;5034027;28;20945;-77
2022/05/08 02:17:24;;;;;;;1.73;1.33;;;15.40;1.00;;;;;;5019473;28;20482;-75
2022/05/08 02:19:52;;;;;;;0.60;0.20;;;15.40;1.00;;;;;;5013728;28;20506;-75
2022/05/08 02:22:20;;;;;;;0.70;0.70;;;15.30;1.00;;;;;;5013986;28;20448;-76
2022/05/08 02:24:48;;;;;;;3.33;1.27;;;15.30;1.00;;;;;;5015632;28;20461;-76
2022/05/08 02:27:16;;;;;;;0.90;0.50;;;15.30;1.00;;;;;;5031331;28;20456;-75
2022/05/08 02:29:48;;;;;;;3.20;3.00;;;15.30;1.00;;;;;;5036096;28;20440;-76
2022/05/08 02:32:16;;;;;;;0.60;0.20;;;15.20;1.00;;;;;;5034269;28;20466;-76
2022/05/08 02:34:44;;;;;;;0.80;0.50;;;15.30;1.00;;;;;;5034142;28;20546;-75
2022/05/08 02:37:12;;;;;;;1.53;1.43;;;15.20;1.00;;;;;;5031794;28;20519;-76
2022/05/08 02:39:40;;;;;;;1.23;1.13;;;15.10;1.00;;;;;;5037889;28;20451;-74
2022/05/08 02:42:09;;;;;;;0.60;0.30;;;15.10;1.00;;;;;;5024328;28;20453;-75
2022/05/08 02:44:37;;;;;;;2.30;1.07;;;15.10;1.00;;;;;;5032255;28;20543;-74
2022/05/08 02:47:06;;;;;;;3.80;0.93;;;15.10;1.00;;;;;;5033491;28;20482;-75
2022/05/08 02:49:35;;;;;;;0.60;0.10;;;;;;;;;;5033569;28;20443;-75
2022/05/08 02:52:02;;;;;;;0.60;0.23;;;15.10;1.00;;;;;;5033700;28;20764;-75
2022/05/08 02:54:30;;;;;;;0.70;0.30;;;15.10;1.00;;;;;;5033480;28;20475;-74
2022/05/08 02:59:44;;;;;;;0.70;0.30;;;15.10;1.00;;;;;;5013375;28;20452;-74
2022/05/08 03:02:13;;;;;;;0.90;0.70;;;15.10;1.00;;;;;;5014153;28;20849;-74
2022/05/08 03:04:41;;;;;;;3.50;1.57;;;15.00;1.00;;;;;;5013604;28;20594;-74
2022/05/08 03:07:09;;;;;;;1.47;1.17;;;14.90;1.00;;;;;;5013191;28;20492;-74
2022/05/08 03:09:37;;;;;;;1.97;0.93;;;14.90;1.00;;;;;;5015526;28;20543;-76
2022/05/08 03:12:05;;;;;;;0.77;0.77;;;14.90;1.00;;;;;;5032449;28;20432;-77
2022/05/08 03:14:33;;;;;;;1.37;0.67;;;;;;;;;;5033019;28;20448;-76
2022/05/08 03:17:01;;;;;;;2.10;1.90;;;14.90;1.00;;;;;;5031747;28;20483;-76
2022/05/08 03:19:31;;;;;;;0.70;0.40;;;14.90;1.00;;;;;;5032943;28;20564;-75
2022/05/08 03:21:59;;;;;;;1.20;0.47;;;14.80;1.00;;;;;;5032790;28;20813;-76
2022/05/08 03:24:29;;;;;;;1.03;0.87;;;15.10;1.00;;;;;;5031840;28;20452;-76
2022/05/08 03:26:57;;;;;;;0.73;0.40;;;14.70;1.00;;;;;;5021533;28;20456;-76
2022/05/08 03:29:26;;;;;;;0.70;0.40;;;14.70;1.00;;;;;;5030070;28;20451;-75
2022/05/08 03:31:55;;;;;;;0.87;0.40;;;14.60;1.00;;;;;;5032335;28;21073;-75
2022/05/08 03:34:23;;;;;;;0.67;0.27;;;14.60;1.00;;;;;;5026139;28;20463;-75
2022/05/08 03:36:52;;;;;;;4.10;3.00;;;14.60;1.00;;;;;;5015789;28;20510;-75
2022/05/08 03:39:20;;;;;;;0.60;0.20;;;14.60;1.00;;;;;;5031205;28;20843;-75
2022/05/08 03:41:47;;;;;;;0.80;0.70;;;14.50;1.00;;;;;;5034661;28;20771;-74
2022/05/08 03:44:16;;;;;;;0.60;0.10;;;14.60;1.00;;;;;;5032211;28;20451;-75
2022/05/08 03:46:44;;;;;;;1.70;1.60;;;14.60;1.00;;;;;;5031744;28;21056;-77
2022/05/08 03:49:11;;;;;;;3.50;2.70;;;14.50;1.00;;;;;;5031917;28;20528;-76
2022/05/08 03:51:39;;;;;;;0.93;0.63;;;14.50;1.00;;;;;;5031857;28;20444;-75
2022/05/08 03:54:09;;;;;;;0.67;0.40;;;14.40;1.00;;;;;;5033717;28;20543;-76
2022/05/08 03:56:37;;;;;;;0.70;0.33;;;14.40;1.00;;;;;;5034323;28;20490;-75
2022/05/08 03:59:05;;;;;;;10.30;1.80;;;14.40;1.00;;;;;;5035253;28;20451;-75
2022/05/08 04:01:33;;;;;;;2.93;2.77;;;;;;;;;;5033295;28;20457;-76
2022/05/08 04:04:02;;;;;;;2.20;1.40;;;14.40;1.00;;;;;;5037237;28;20442;-75
2022/05/08 04:06:31;;;;;;;2.57;2.37;;;14.40;1.00;;;;;;5035549;28;20572;-74
2022/05/08 04:08:59;;;;;;;2.20;2.00;;;;;;;;;;5032091;28;20435;-75
2022/05/08 04:11:29;;;;;;;1.73;1.37;;;14.30;1.00;;;;;;5031908;28;20457;-76
2022/05/08 04:13:58;;;;;;;1.17;0.87;;;14.30;1.00;;;;;;5031861;28;20455;-74
2022/05/08 04:16:26;;;;;;;1.60;1.50;;;14.30;1.00;;;;;;5031091;28;20512;-74
2022/05/08 04:18:54;;;;;;;4.60;0.87;;;14.30;1.00;;;;;;5033959;28;20435;-76
2022/05/08 04:21:22;;;;;;;1.20;1.07;;;14.40;1.00;;;;;;5021466;28;20531;-74
2022/05/08 04:26:37;;;;;;;1.37;1.07;;;14.40;1.00;;;;;;5022363;28;20488;-75
2022/05/08 04:29:04;;;;;;;3.27;2.20;;;14.40;1.00;;;;;;5011260;28;20452;-75
2022/05/08 04:31:33;;;;;;;1.57;0.20;;;14.40;1.00;;;;;;5011963;28;20444;-75
2022/05/08 04:34:01;;;;;;;0.80;0.40;;;14.30;1.00;;;;;;5013414;28;20932;-76
2022/05/08 04:36:31;;;;;;;0.90;0.67;;;14.40;1.00;;;;;;5011410;28;20480;-76
2022/05/08 04:38:59;;;;;;;1.40;1.10;;;14.40;1.00;;;;;;5011866;28;20455;-76
2022/05/08 04:41:28;;;;;;;2.47;2.27;;;14.40;1.00;;;;;;5012030;28;20458;-76
2022/05/08 04:44:00;;;;;;;1.43;1.33;;;;;;;;;;5012068;28;20486;-74
2022/05/08 04:46:28;;;;;;;3.23;0.63;;;14.30;1.00;;;;;;5012134;28;20507;-76
2022/05/08 04:48:56;;;;;;;1.07;0.87;;;14.30;1.00;;;;;;5005599;28;20544;-77
2022/05/08 04:51:24;;;;;;;1.10;0.83;;;14.40;1.00;;;;;;5013386;28;20835;-77
2022/05/08 04:53:52;;;;;;;0.77;0.77;;;14.40;1.00;;;;;;5013336;28;20457;-77
2022/05/08 04:56:21;;;;;;;0.60;0.20;;;14.40;1.00;;;;;;5011389;28;20465;-76
2022/05/08 04:58:49;;;;;;;0.70;0.50;;;14.40;1.00;;;;;;5027363;28;20538;-76
2022/05/08 05:01:18;;;;;;;3.87;3.30;;;14.40;1.00;;;;;;5032876;28;20451;-76
2022/05/08 05:03:46;;;;;;;0.97;0.70;;;14.40;1.00;;;;;;5031661;28;20447;-75
2022/05/08 05:06:14;;;;;;;4.80;2.10;;;14.40;1.00;;;;;;5031036;28;20559;-76
2022/05/08 05:08:42;;;;;;;3.10;2.13;;;14.40;1.00;;;;;;5031187;28;20454;-76
2022/05/08 05:11:10;;;;;;;0.80;0.50;;;14.40;1.00;;;;;;5031524;28;20903;-75
2022/05/08 05:13:39;;;;;;;2.70;1.07;;;14.30;1.00;;;;;;5031599;28;20451;-75
2022/05/08 05:16:07;;;;;;;6.93;1.60;;;14.30;1.00;;;;;;5030981;28;20843;-73
2022/05/08 05:18:37;;;;;;;0.73;0.40;;;14.30;1.00;;;;;;5018389;28;20492;-76
2022/05/08 05:21:05;;;;;;;1.37;1.27;;;14.30;1.00;;;;;;5012542;28;20452;-77
2022/05/08 05:23:35;;;;;;;2.00;1.83;;;14.30;1.00;;;;;;5012331;28;20452;-76
2022/05/08 05:26:03;;;;;;;1.00;0.93;;;14.30;1.00;;;;;;5016089;28;20550;-76
2022/05/08 05:28:31;;;;;;;1.33;1.27;;;14.30;1.00;;;;;;5031769;28;20469;-76
2022/05/08 05:31:00;;;;;;;1.70;1.60;;;14.40;1.00;;;;;;5025233;28;20451;-76
2022/05/08 05:33:29;;;;;;;2.33;1.43;;;14.30;1.00;;;;;;5036611;28;20451;-74
2022/05/08 05:35:58;;;;;;;0.83;0.50;;;14.40;1.00;;;;;;5031806;28;20850;-74
2022/05/08 05:38:26;;;;;;;2.17;0.70;;;14.30;1.00;;;;;;5034585;28;20497;-74
2022/05/08 05:40:54;;;;;;;2.10;1.37;;;14.40;1.00;;;;;;5042776;28;20937;-74
2022/05/08 05:43:21;;;;;;;1.00;0.60;;;14.40;1.00;;;;;;5055586;28;20442;-75
2022/05/08 05:47:49;;;;;;;0.90;0.80;;;14.50;1.00;;;;;;5047196;28;20509;-74
2022/05/08 05:48:37;;;;;;;2.93;1.60;;;14.50;1.00;;;;;;5015057;28;20452;-74
2022/05/08 05:51:07;;;;;;;2.90;2.63;;;14.50;1.00;;;;;;5014757;28;20448;-74
2022/05/08 05:53:35;;;;;;;0.80;0.63;;;14.50;1.00;;;;;;5014674;28;20452;-75
2022/05/08 05:56:03;;;;;;;0.60;0.20;;;14.50;1.00;;;;;;5014562;28;20468;-75
2022/05/08 05:58:32;;;;;;;1.87;1.03;;;;;;;;;;5035940;28;20488;-73
2022/05/08 06:01:00;;;;;;;2.10;0.97;;;14.50;1.00;;;;;;5028702;28;21125;-74
2022/05/08 06:03:28;;;;;;;4.23;0.73;;;14.60;1.00;;;;;;5014914;28;20441;-75
2022/05/08 06:05:56;;;;;;;1.00;0.60;;;14.60;1.00;;;;;;5014810;28;20469;-74
2022/05/08 06:08:26;;;;;;;3.47;3.17;;;14.50;1.00;;;;;;5037867;28;20443;-73
2022/05/08 06:10:54;;;;;;;0.60;0.20;;;14.60;1.00;;;;;;5046604;28;20450;-75
2022/05/08 06:13:22;;;;;;;0.97;0.87;;;14.60;1.00;;;;;;5032887;28;20452;-74
2022/05/08 06:15:50;;;;;;;3.43;1.63;;;14.80;1.00;;;;;;5017091;28;20582;-75
2022/05/08 06:18:18;;;;;;;2.40;1.73;;;14.80;1.00;;;;;;5031387;28;20482;-75
2022/05/08 06:20:46;;;;;;;4.20;2.13;;;14.80;1.00;;;;;;5017432;28;20531;-76
2022/05/08 06:23:14;;;;;;;0.60;0.20;;;14.80;1.00;;;;;;5015369;28;20571;-75
2022/05/08 06:25:43;;;;;;;1.43;0.90;;;;;;;;;;5023063;28;20545;-76
2022/05/08 06:28:14;;;;;;;1.43;1.33;;;14.90;1.00;;;;;;5015635;28;20456;-74
2022/05/08 06:30:42;;;;;;;0.77;0.77;;;14.90;1.00;;;;;;5018204;28;20534;-76
2022/05/08 06:33:10;;;;;;;1.70;1.50;;;15.00;1.00;;;;;;5028843;28;20448;-76
2022/05/08 06:35:39;;;;;;;3.10;2.10;;;15.00;1.00;;;;;;5032652;28;20546;-76
2022/05/08 06:38:08;;;;;;;1.23;1.13;;;;;;;;;;5032981;28;20948;-75
2022/05/08 06:40:38;;;;;;;3.43;2.13;;;15.10;1.00;;;;;;5032924;28;21783;-75
2022/05/08 06:43:08;;;;;;;3.53;1.83;;;15.10;1.00;;;;;;5031953;28;20542;-73
2022/05/08 06:45:36;;;;;;;0.90;0.90;;;15.10;1.00;;;;;;5032321;28;20455;-73
2022/05/08 06:48:06;;;;;;;1.83;1.27;;;15.10;1.00;;;;;;5029898;28;20821;-73
2022/05/08 06:50:35;;;;;;;2.27;2.17;;;15.10;1.00;;;;;;5031928;28;20467;-75
2022/05/08 06:53:06;;;;;;;3.33;1.70;;;15.10;1.00;;;;;;5033496;28;20436;-74
2022/05/08 06:55:34;;;;;;;0.70;0.47;;;15.30;1.00;;;;;;5032392;28;20521;-75
2022/05/08 06:58:02;;;;;;;0.70;0.50;;;15.30;1.00;;;;;;5018201;28;20480;-74
2022/05/08 07:03:18;;;;;;;0.60;0.10;;;15.60;1.00;;;;;;5030731;28;20650;-72
2022/05/08 07:05:47;;;;;;;0.60;0.20;;;15.70;1.00;;;;;;5036918;28;20452;-72
2022/05/08 07:08:15;;;;;;;3.50;2.73;;;15.80;1.00;;;;;;5043526;28;20460;-71
2022/05/08 07:10:43;;;;;;;3.87;2.03;;;16.00;1.00;;;;;;5045728;28;20998;-72
2022/05/08 07:13:11;;;;;;;2.90;0.87;;;16.00;1.00;;;;;;5031222;28;20530;-72
2022/05/08 07:15:41;;;;;;;1.70;0.73;;;16.20;1.00;;;;;;5030526;28;20468;-72
2022/05/08 07:18:25;;;;;;;0.90;0.37;;;16.20;1.00;;;;;;5029812;28;20483;-71
2022/05/08 07:20:53;;;;;;;0.80;0.30;;;16.20;1.00;;;;;;5033208;28;20447;-73
2022/05/08 07:23:21;;;;;;;0.60;0.27;;;16.40;1.00;;;;;;5023149;28;20453;-73
2022/05/08 07:25:52;;;;;;;3.07;1.40;;;16.30;1.00;;;;;;5022455;28;20475;-77
2022/05/08 07:28:20;;;;;;;0.60;0.10;;;16.30;1.00;;;;;;5024522;28;20510;-76
2022/05/08 07:30:50;;;;;;;1.90;1.70;;;16.50;1.00;;;;;;5058092;28;20476;-79
2022/05/08 07:33:19;;;;;;;2.20;1.13;;;16.40;1.00;;;;;;5040740;28;20480;-76
2022/05/08 07:38:35;;;;;;;0.77;0.63;;;16.30;1.00;;;;;;5024753;28;20476;-78
2022/05/08 07:41:03;;;;;;;2.40;1.60;;;16.40;1.00;;;;;;5017183;28;20459;-75
2022/05/08 07:43:31;;;;;;;0.60;0.20;;;16.40;1.00;;;;;;5020079;28;20477;-79
2022/05/08 07:46:01;;;;;;;0.80;0.40;;;16.50;1.00;;;;;;5033536;28;20505;-78
2022/05/08 07:48:29;;;;;;;1.93;0.40;;;16.50;1.00;;;;;;5028442;28;20479;-76
2022/05/08 07:50:59;;;;;;;0.70;0.40;;;16.60;1.00;;;;;;5045730;28;20537;-77
2022/05/08 07:53:29;;;;;;;0.70;0.27;;;16.60;1.00;;;;;;5054016;28;20883;-79
2022/05/08 07:55:57;;;;;;;0.60;0.10;;;16.70;1.00;;;;;;5045122;28;20892;-77
2022/05/08 07:58:28;;;;;;;0.73;0.33;;;16.80;1.00;;;;;;5036760;28;20640;-78
2022/05/08 08:01:03;;;;;;;0.60;0.20;;;16.80;1.00;;;;;;5018680;28;20436;-78
2022/05/08 08:03:32;;;;;;;0.97;0.87;;;16.80;1.00;;;;;;5018702;28;20436;-77
2022/05/08 08:06:01;;;;;;;0.60;0.20;;;16.90;1.00;;;;;;5034205;28;20520;-77
2022/05/08 08:08:39;;;;;;;0.80;0.63;;;17.00;1.00;;;;;;5040025;28;20461;-77
2022/05/08 08:11:08;;;;;;;0.60;0.30;;;17.00;1.00;;;;;;5026570;28;20810;-76
2022/05/08 08:13:36;;;;;;;0.70;0.40;;;17.20;1.00;;;;;;5021417;28;20548;-80
2022/05/08 08:16:07;;;;;;;2.23;1.33;;;17.20;1.00;;;;;;5023408;28;20472;-77
2022/05/08 08:18:35;;;;;;;0.70;0.37;;;17.20;1.00;;;;;;5023604;28;20478;-77
2022/05/08 08:21:09;;;;;;;0.60;0.10;;;17.10;1.00;;;;;;5014311;28;20782;-76
2022/05/08 08:23:38;;;;;;;0.60;0.20;;;17.20;1.00;;;;;;5015264;28;20539;-78
2022/05/08 08:26:06;;;;;;;4.27;2.60;;;17.30;1.00;;;;;;5017075;28;20481;-80
2022/05/08 08:28:34;;;;;;;0.70;0.63;;;17.30;1.00;;;;;;5028561;28;20435;-78
2022/05/08 08:31:02;;;;;;;1.40;1.30;;;17.30;1.00;;;;;;5032646;28;20451;-75
2022/05/08 08:33:31;;;;;;;0.60;0.10;;;17.30;1.00;;;;;;5039542;28;20540;-75
2022/05/08 08:36:00;;;;;;;0.60;0.20;;;17.40;1.00;;;;;;5030242;28;20491;-75
2022/05/08 08:38:28;;;;;;;0.70;0.50;;;17.50;1.00;;;;;;5023978;28;20574;-77
2022/05/08 08:40:57;;;;;;;0.70;0.40;;;17.50;1.00;;;;;;5025682;28;20455;-76
2022/05/08 08:43:27;;;;;;;0.60;0.10;;;17.50;1.00;;;;;;5021409;28;20430;-77
2022/05/08 08:48:53;;;;;;;0.60;0.10;;;17.70;1.00;;;;;;5027090;28;20451;-76
2022/05/08 08:51:21;;;;;;;2.00;1.90;;;18.00;1.00;;;;;;5037112;28;20469;-77
2022/05/08 08:53:56;;;;;;;0.70;0.40;;;18.00;1.00;;;;;;5032043;28;20933;-77
2022/05/08 08:56:24;;;;;;;0.60;0.20;;;18.10;1.00;;;;;;5040786;28;20469;-78
2022/05/08 08:58:52;;;;;;;0.60;0.20;;;18.10;1.00;;;;;;5040570;28;20521;-77
2022/05/08 09:01:20;;;;;;;5.50;1.40;;;18.10;1.00;;;;;;5034614;28;20794;-77
2022/05/08 09:04:03;;;;;;;1.43;0.90;;;;;;;;;;5034387;28;20444;-77
2022/05/08 09:06:58;;;;;;;0.70;0.40;;;;;;;;;;5028743;28;20478;-77
2022/05/08 09:09:28;;;;;;;0.60;0.20;;;18.30;1.00;;;;;;5040104;28;20763;-76
2022/05/08 09:11:57;;;;;;;0.70;0.27;;;18.30;1.00;;;;;;5031297;28;20440;-76
2022/05/08 09:14:32;;;;;;;0.60;0.20;;;18.40;1.00;;;;;;5018767;28;20448;-78
2022/05/08 09:17:01;;;;;;;1.20;0.63;;;18.40;1.00;;;;;;5017153;28;21006;-75
2022/05/08 09:19:37;;;;;;;0.60;0.20;;;18.40;1.00;;;;;;5017150;28;20563;-78
2022/05/08 09:22:06;;;;;;;0.70;0.30;;;18.50;1.00;;;;;;5020181;28;20479;-78
2022/05/08 09:24:35;;;;;;;1.27;1.20;;;18.50;1.00;;;;;;5022916;28;20444;-77
2022/05/08 09:27:11;;;;;;;0.60;0.30;;;18.70;1.00;;;;;;5037388;28;20479;-78
2022/05/08 09:29:39;;;;;;;0.60;0.20;;;18.70;1.00;;;;;;5028098;28;20448;-76
2022/05/08 09:32:39;;;;;;;0.60;0.20;;;18.80;1.00;;;;;;5025917;28;20887;-76
2022/05/08 09:35:09;;;;;;;0.70;0.30;;;18.80;1.00;;;;;;5038323;28;20509;-76
2022/05/08 09:37:53;;;;;;;0.90;0.40;;;18.80;1.00;;;;;;5018909;28;20559;-76
2022/05/08 09:40:22;;;;;;;0.60;0.10;;;18.90;1.00;;;;;;5017701;28;20480;-76
2022/05/08 09:42:50;;;;;;;0.80;0.60;;;;;;;;;;5018643;28;20494;-80
2022/05/08 09:45:18;;;;;;;1.13;0.57;;;19.00;1.00;;;;;;5034210;28;20471;-75
2022/05/08 09:47:47;;;;;;;7.20;1.50;;;19.00;1.00;;;;;;5049893;23;20618;-73
2022/05/08 09:50:18;;;;;;;1.77;1.67;;;19.00;1.00;;;;;;5006587;28;20509;-70
2022/05/08 09:52:46;;;;;;;0.67;0.30;;;19.00;1.00;;;;;;5005847;28;20448;-72
2022/05/08 09:55:15;;;;;;;0.60;0.20;;;19.00;1.00;;;;;;5014190;28;20749;-72
2022/05/08 09:57:43;;;;;;;3.43;1.90;;;19.10;1.00;;;;;;5026436;28;20480;-71
2022/05/08 10:00:16;;;;;;;1.57;1.47;;;19.20;1.00;;;;;;5039383;28;20870;-74
2022/05/08 10:02:44;;;;;;;3.73;2.30;;;19.20;99.90;;;;;;5037589;28;20516;-70
2022/05/08 10:05:13;;;;;;;2.87;2.77;;;19.30;1.00;;;;;;5019502;28;20512;-71
2022/05/08 10:07:42;;;;;;;1.10;0.60;;;19.40;99.90;;;;;;5013819;28;20466;-72
2022/05/08 10:15:48;;;;;;;1.90;0.50;;;19.60;99.90;;;;;;5010030;28;20444;-72
2022/05/08 10:18:27;;;;;;;0.60;0.10;;;19.70;99.90;;;;;;5007134;28;20461;-72
2022/05/08 10:21:06;;;;;;;0.60;0.20;;;19.80;99.90;;;;;;5012556;28;20846;-70
2022/05/08 10:23:37;;;;;;;2.50;1.20;;;19.70;99.90;;;;;;5013314;28;20530;-70
2022/05/08 10:26:17;;;;;;;1.03;0.70;;;19.90;99.90;;;;;;5011855;28;20442;-70
2022/05/08 10:29:10;;;;;;;2.30;1.20;;;19.90;99.90;;;;;;5020178;28;20492;-71
2022/05/08 10:31:46;;;;;;;0.70;0.40;;;19.90;99.90;;;;;;5029594;28;20531;-72
2022/05/08 10:34:15;;;;;;;0.60;0.10;;;20.00;99.90;;;;;;5033479;28;21007;-72
2022/05/08 10:37:16;;;;;;;0.70;0.10;;;20.00;99.90;;;;;;5030450;28;20475;-70
2022/05/08 10:39:47;;;;;;;0.70;0.20;;;20.10;99.90;;;;;;5012180;28;20485;-71
2022/05/08 10:42:42;;;;;;;0.67;0.20;;;20.10;99.90;;;;;;5017602;28;20509;-70
2022/05/08 10:45:40;;;;;;;1.00;0.90;;;20.20;99.90;;;;;;5008716;28;20451;-71
2022/05/08 10:48:13;;;;;;;0.60;0.10;;;20.20;99.90;;;;;;5003644;28;20475;-71
2022/05/08 10:50:43;;;;;;;0.70;0.30;;;20.30;99.90;;;;;;4998296;28;20474;-72
2022/05/08 10:53:23;;;;;;;1.17;0.80;;;20.30;99.90;;;;;;4996260;28;20447;-71
2022/05/08 10:55:53;;;;;;;0.70;0.20;;;20.40;99.90;;;;;;4996154;28;20455;-72
2022/05/08 10:58:21;;;;;;;0.70;0.20;;;20.30;99.90;;;;;;4994177;28;20475;-71
2022/05/08 11:00:49;;;;;;;1.33;0.60;;;20.30;99.90;;;;;;5011933;28;20560;-71
2022/05/08 11:03:25;;;;;;;0.80;0.57;;;20.30;99.90;;;;;;5012730;28;20456;-70
2022/05/08 11:05:53;;;;;;;0.90;0.40;;;20.40;99.90;;;;;;5012521;28;20468;-71
2022/05/08 11:08:27;;;;;;;1.03;0.60;;;20.30;99.90;;;;;;5012521;28;20469;-72
2022/05/08 11:11:03;;;;;;;0.70;0.10;;;20.40;99.90;;;;;;5013674;28;20451;-74
2022/05/08 11:13:45;;;;;;;2.87;1.20;;;20.30;99.90;;;;;;5012303;28;20449;-71
2022/05/08 11:16:16;;;;;;;0.60;0.10;;;20.40;99.90;;;;;;5016892;28;20453;-72
2022/05/08 11:18:44;;;;;;;0.70;0.20;;;20.40;99.90;;;;;;5032367;28;20455;-72
2022/05/08 11:21:15;;;;;;;0.70;0.20;;;20.50;99.90;;;;;;5032262;28;20488;-72
2022/05/08 11:23:44;;;;;;;1.43;1.33;;;20.50;99.90;;;;;;5031871;28;20461;-72
2022/05/08 11:26:15;;;;;;;2.37;1.80;;;20.60;99.90;;;;;;5027537;28;20473;-72
2022/05/08 11:28:50;;;;;;;0.70;0.20;;;20.60;99.90;;;;;;5012521;28;20446;-71
2022/05/08 11:31:19;;;;;;;0.73;0.40;;;20.60;99.90;;;;;;5012540;28;20804;-71
2022/05/08 11:36:34;;;;;;;0.70;0.10;;;20.70;99.90;;;;;;5011459;28;20781;-69
2022/05/08 11:39:04;;;;;;;2.33;0.30;;;20.70;99.90;;;;;;5011929;28;20465;-69
2022/05/08 11:41:37;;;;;;;0.70;0.10;;;20.90;99.90;;;;;;5012531;28;20483;-72
2022/05/08 11:44:23;;;;;;;1.13;1.03;;;21.00;99.90;;;;;;5012671;28;20447;-70
2022/05/08 11:46:54;;;;;;;2.80;2.63;;;21.20;99.90;;;;;;5011842;28;20586;-72
2022/05/08 11:49:23;;;;;;;0.70;0.27;;;21.10;99.90;;;;;;5011053;28;20917;-75
2022/05/08 11:51:53;;;;;;;1.00;0.73;;;21.20;99.90;;;;;;5012881;28;20453;-72
2022/05/08 11:54:23;;;;;;;0.80;0.47;;;21.20;99.90;;;;;;5011630;28;21592;-72
2022/05/08 11:57:10;;;;;;;0.87;0.50;;;21.00;99.90;;;;;;5011721;28;20470;-72
2022/05/08 11:59:39;;;;;;;0.70;0.20;;;21.00;99.90;;;;;;5011986;28;20932;-70
2022/05/08 12:02:07;;;;;;;0.70;0.10;;;21.00;99.90;;;;;;5012209;28;20512;-72
2022/05/08 12:04:35;;;;;;;0.70;0.20;;;21.00;99.90;;;;;;5011600;28;20451;-71
2022/05/08 12:07:05;;;;;;;0.70;0.20;;;21.20;99.90;;;;;;5007574;28;20483;-71
2022/05/08 12:09:35;;;;;;;3.63;1.60;;;21.20;99.90;;;;;;4991842;28;20551;-71
2022/05/08 12:12:28;;;;;;;0.73;0.37;;;21.10;99.90;;;;;;4992221;28;20459;-72
2022/05/08 12:15:02;;;;;;;0.70;0.40;;;21.20;99.90;;;;;;5010126;28;20547;-74
2022/05/08 12:17:58;;;;;;;0.70;0.37;;;21.20;99.90;;;;;;5010629;28;20552;-74
2022/05/08 12:20:34;;;;;;;1.07;0.93;;;21.30;99.90;;;;;;5012128;28;20493;-73
2022/05/08 12:23:03;;;;;;;1.10;0.90;;;21.40;99.90;;;;;;5012728;28;20917;-71
2022/05/08 12:25:32;;;;;;;0.70;0.20;;;21.40;99.90;;;;;;5014837;28;20452;-73
2022/05/08 12:28:02;;;;;;;0.70;0.10;;;21.50;99.90;;;;;;4992821;28;20456;-72
2022/05/08 12:30:29;;;;;;;0.70;0.20;;;20.60;99.90;;;;;;4991279;28;20555;-72
2022/05/08 12:32:57;;;;;;;0.70;0.20;;;21.60;99.90;;;;;;5009911;28;20437;-73
2022/05/08 12:35:25;;;;;;;0.90;0.20;;;21.60;99.90;;;;;;5011217;28;20459;-74
2022/05/08 12:37:53;;;;;;;1.00;0.57;;;21.60;99.90;;;;;;5010793;28;20462;-72
2022/05/08 12:40:21;;;;;;;0.80;0.30;;;21.60;99.90;;;;;;5010924;28;20913;-73
2022/05/08 12:42:49;;;;;;;0.80;0.30;;;21.60;99.90;;;;;;4991430;28;20459;-72
2022/05/08 12:45:18;;;;;;;0.70;0.20;;;21.50;99.90;;;;;;5007207;28;20454;-71
2022/05/08 12:47:46;;;;;;;0.80;0.50;;;21.50;99.90;;;;;;5010493;28;20476;-73
2022/05/08 12:50:14;;;;;;;0.90;0.60;;;21.50;99.90;;;;;;5008236;28;20463;-72
2022/05/08 12:52:45;;;;;;;0.70;0.10;;;21.60;99.90;;;;;;5010862;28;20436;-74
2022/05/08 12:55:16;;;;;;;3.50;0.90;;;21.60;99.90;;;;;;5010706;28;20572;-73
2022/05/08 13:00:42;;;;;;;0.83;0.70;;;21.60;99.90;;;;;;5009062;28;20859;-74
2022/05/08 13:03:11;;;;;;;3.27;2.80;;;21.60;99.90;;;;;;5010731;28;20442;-75
2022/05/08 13:05:39;;;;;;;1.00;0.40;;;21.60;99.90;;;;;;5010960;28;20450;-72
2022/05/08 13:08:08;;;;;;;1.00;0.70;;;21.60;99.90;;;;;;5015102;28;20468;-73
2022/05/08 13:10:36;;;;;;;2.97;2.00;;;21.70;99.90;;;;;;4994835;28;20443;-74
2022/05/08 13:13:04;;;;;;;1.53;0.93;;;21.70;99.90;;;;;;4995773;28;20467;-74
2022/05/08 13:15:32;;;;;;;1.07;0.40;;;21.70;99.90;;;;;;5009803;28;20980;-74
2022/05/08 13:18:01;;;;;;;1.00;0.83;;;21.70;99.90;;;;;;5011090;28;20802;-74
2022/05/08 13:20:29;;;;;;;1.00;0.87;;;21.60;99.90;;;;;;5021488;28;20487;-72
2022/05/08 13:22:57;;;;;;;2.40;2.00;;;21.70;99.90;;;;;;5031542;28;20485;-73
2022/05/08 13:25:25;;;;;;;1.20;0.57;;;21.80;99.90;;;;;;5025218;28;20474;-73
2022/05/08 13:27:53;;;;;;;0.80;0.50;;;21.60;99.90;;;;;;5012108;28;20466;-73
2022/05/08 13:30:20;;;;;;;1.10;0.40;;;21.70;99.90;;;;;;5016563;28;20491;-75
2022/05/08 13:32:48;;;;;;;0.70;0.30;;;21.70;99.90;;;;;;5033719;28;20730;-75
2022/05/08 13:35:17;;;;;;;0.70;0.37;;;21.80;99.90;;;;;;5034186;28;20496;-74
2022/05/08 13:37:45;;;;;;;0.80;0.47;;;21.80;99.90;;;;;;5026044;28;20453;-74
2022/05/08 13:40:13;;;;;;;1.27;0.67;;;21.90;99.90;;;;;;5007341;28;20465;-76